Terminal Aerodrome Forecast
Issued by NWS Louisville, KY

Home | Current Version | Previous Version | Text Only | Print | Product List | Glossary On
Versions: 1 2 3 4 5 6 7 8 9 10 11 12 13 14 15 16 17 18
000
FTUS43 KLMK 222322
TAFSDF
TAF
KSDF 222322Z 2300/2406 16009KT 6SM -SHRA SCT015 OVC027
      TEMPO 2300/2301 2SM SHRA BKN015 OVC027
     FM230300 16009KT P6SM SCT020 OVC035
     FM230900 20011KT P6SM -SHRA BKN015 OVC030
     FM231800 21011G19KT 4SM SHRA VCTS BKN020CB OVC025
     FM240200 31004KT 4SM SHRA OVC015=

USA.gov is the U.S. government's official web portal to all federal, state and local government web resources and services.